Greene County-Lewis A Jackson Regional (I19)

 

Airport Diagram
No Airport Diagram Available
Current Weather/Forecast (IFR Conditions)
METAR KI19 260235Z AUTO 07003KT 2SM BR OVC005 00/00 A2978 RMK AO2 T00010001
TAF

Airport Information

All Charts
General
Chart Name View
TAKEOFF MINIMUMS
TAKEOFF MINIMUMS

Approaches
Chart Name Download
RNAV (GPS) RWY 07
RNAV (GPS) RWY 25
RNAV (GPS) RWY 07
RNAV (GPS) RWY 25


Airport Statistics
Departures Arrivals Local
All Collected Stats since June 2016: 9 3 0
2021 Stats: 1 1 0
January Stats: 1 1 0

Inbound Traffic (Arrivals) - 0

No inbound traffic.


Outbound Traffic (Departures) - 0

No outbound traffic.


Local Traffic (Pattern) - 0

No local traffic.